Weather at Campo di Volo Tignes

Public forecast

Using degrees Celsius for public forecast. Weather courtesy of forecast.io.

Closest aviation weather report (METAR) to Campo di Volo Tignes

Report is more than 2 hours old.

Closest report is Aviano Air Base, 12.7 nm (23.5 km) SE.

2023/03/28 19:55 (retrieved 4 hours ago)

LIPA 281955Z 04005KT CAVOK 07/02 Q1024 RMK SKC VIS MIN 9999 WIND THR05 /////KT WIND THR23 /////KT A3025 BLU

Closest aviation forecast (TAF) to Campo di Volo Tignes

Closest forecast is Treviso-Sant'Angelo Airport, 31.0 nm (57.5 km) SSW.

2023/03/28 18:27 (retrieved 5 hours ago)

TAF LIPH 281700Z 2818/2918 VRB05KT CAVOK